createdAt,value
2017-09-13T00:01:00.636Z,12.1
2017-09-13T00:02:01.361Z,12.1
2017-09-13T00:03:02.089Z,12.1
2017-09-13T00:04:02.833Z,12.1
2017-09-13T00:05:03.554Z,12.2
2017-09-13T00:06:04.572Z,12.2
2017-09-13T00:07:05.316Z,12.2
2017-09-13T00:08:06.101Z,12.1
2017-09-13T00:09:06.838Z,12.1
2017-09-13T00:10:07.631Z,12.1
2017-09-13T00:11:08.808Z,12.1
2017-09-13T00:12:09.540Z,12.0
2017-09-13T00:13:10.331Z,12.1
2017-09-13T00:14:11.050Z,12.1
2017-09-13T00:15:11.839Z,12.0
2017-09-13T00:16:13.026Z,12.1
2017-09-13T00:17:13.751Z,12.1
2017-09-13T00:18:14.489Z,12.1
2017-09-13T00:19:15.261Z,12.0
2017-09-13T00:20:16.052Z,12.0
2017-09-13T00:21:17.127Z,11.9
2017-09-13T00:22:17.846Z,11.9
2017-09-13T00:23:18.627Z,11.9
2017-09-13T00:24:19.425Z,11.9
2017-09-13T00:25:20.145Z,11.9
2017-09-13T00:26:21.174Z,11.9
2017-09-13T00:27:21.965Z,11.8
2017-09-13T00:28:22.686Z,11.8
2017-09-13T00:29:23.466Z,11.9
2017-09-13T00:30:24.225Z,11.8
2017-09-13T00:31:25.344Z,11.8
2017-09-13T00:32:26.077Z,11.8
2017-09-13T00:33:27.039Z,11.8
2017-09-13T00:34:28.046Z,11.8
2017-09-13T00:35:28.761Z,11.9
2017-09-13T00:36:29.886Z,11.8
2017-09-13T00:37:30.648Z,11.8
2017-09-13T00:38:31.401Z,11.8
2017-09-13T00:39:32.199Z,11.8
2017-09-13T00:40:32.918Z,11.9
2017-09-13T00:41:33.708Z,11.9
2017-09-13T00:42:34.492Z,11.8
2017-09-13T00:43:35.602Z,12.0
2017-09-13T00:44:36.326Z,12.0
2017-09-13T00:45:37.057Z,11.8
2017-09-13T00:46:37.790Z,11.9
2017-09-13T00:47:38.583Z,12.0
2017-09-13T00:48:39.540Z,11.9
2017-09-13T00:49:40.322Z,12.0
2017-09-13T00:50:41.067Z,11.9
2017-09-13T00:51:41.860Z,11.9
2017-09-13T00:52:42.628Z,11.8
2017-09-13T00:53:43.719Z,11.9
2017-09-13T00:54:44.446Z,11.9
2017-09-13T00:55:45.259Z,12.0
2017-09-13T00:56:46.023Z,12.0
2017-09-13T00:57:46.747Z,12.0
2017-09-13T00:58:47.727Z,12.1
2017-09-13T00:59:48.445Z,12.0
2017-09-13T01:00:49.162Z,12.1
2017-09-13T01:01:49.886Z,12.1
2017-09-13T01:02:50.621Z,12.1
2017-09-13T01:03:51.402Z,12.1
2017-09-13T01:04:52.137Z,12.2
2017-09-13T01:05:53.327Z,12.1
2017-09-13T01:06:54.063Z,12.1
2017-09-13T01:07:54.796Z,12.1
2017-09-13T01:08:55.530Z,12.1
2017-09-13T01:09:56.296Z,12.1
2017-09-13T01:10:57.262Z,12.1
2017-09-13T01:11:57.992Z,12.0
2017-09-13T01:12:58.729Z,12.0
2017-09-13T01:13:59.509Z,12.0
2017-09-13T01:15:00.307Z,11.9
2017-09-13T01:16:01.025Z,11.8
2017-09-13T01:17:01.751Z,11.8
2017-09-13T01:18:02.969Z,11.8
2017-09-13T01:19:03.751Z,11.7
2017-09-13T01:20:04.484Z,11.7
2017-09-13T01:21:05.217Z,11.8
2017-09-13T01:22:05.941Z,11.8
2017-09-13T01:23:06.937Z,11.7
2017-09-13T01:24:07.724Z,11.8
2017-09-13T01:25:08.533Z,11.8
2017-09-13T01:26:09.252Z,11.7
2017-09-13T01:27:09.993Z,11.7
2017-09-13T01:28:11.186Z,11.7
2017-09-13T01:29:11.907Z,11.7
2017-09-13T01:30:12.635Z,11.7
2017-09-13T01:31:13.379Z,11.7
2017-09-13T01:32:14.124Z,11.7
2017-09-13T01:33:15.296Z,11.7
2017-09-13T01:34:16.031Z,11.8
2017-09-13T01:35:16.822Z,11.8
2017-09-13T01:36:17.553Z,11.9
2017-09-13T01:37:18.347Z,11.9
2017-09-13T01:38:19.434Z,12.0
2017-09-13T01:39:20.236Z,12.0
2017-09-13T01:40:20.960Z,11.9
2017-09-13T01:41:21.694Z,11.9
2017-09-13T01:42:22.420Z,11.8
2017-09-13T01:43:23.483Z,11.8
2017-09-13T01:44:24.284Z,11.8
2017-09-13T01:45:25.016Z,11.8
2017-09-13T01:46:25.830Z,11.7
2017-09-13T01:47:26.608Z,11.7
2017-09-13T01:48:27.710Z,11.8
2017-09-13T01:49:28.517Z,11.9
2017-09-13T01:50:29.322Z,11.9
2017-09-13T01:51:30.138Z,11.9
2017-09-13T01:52:30.859Z,12.0
2017-09-13T01:53:31.933Z,11.9
2017-09-13T01:54:32.732Z,12.0
2017-09-13T01:55:33.466Z,12.1
2017-09-13T01:56:34.187Z,12.1
2017-09-13T01:57:34.946Z,12.2
2017-09-13T01:58:36.146Z,12.2
2017-09-13T01:59:36.968Z,12.2
2017-09-13T02:00:37.737Z,12.2
2017-09-13T02:01:38.538Z,12.1
2017-09-13T02:02:39.279Z,12.2
2017-09-13T02:03:40.004Z,12.2
2017-09-13T02:04:40.771Z,12.1
2017-09-13T02:05:41.858Z,12.2
2017-09-13T02:06:42.644Z,12.2
2017-09-13T02:07:43.370Z,12.3
2017-09-13T02:08:44.105Z,12.3
2017-09-13T02:09:44.914Z,12.4
2017-09-13T02:10:45.705Z,12.4
2017-09-13T02:11:46.435Z,12.4
2017-09-13T02:12:47.249Z,12.3
2017-09-13T02:13:47.984Z,12.3
2017-09-13T02:14:48.713Z,12.3
2017-09-13T02:15:49.734Z,12.3
2017-09-13T02:16:50.468Z,12.3
2017-09-13T02:17:51.185Z,12.3
2017-09-13T02:18:51.915Z,12.3
2017-09-13T02:19:52.718Z,12.3
2017-09-13T02:20:53.811Z,12.4
2017-09-13T02:21:54.532Z,12.4
2017-09-13T02:22:55.338Z,12.4
2017-09-13T02:23:56.134Z,12.4
2017-09-13T02:24:56.853Z,12.5
2017-09-13T02:25:57.947Z,12.5
2017-09-13T02:26:58.674Z,12.4
2017-09-13T02:27:59.444Z,12.4
2017-09-13T02:29:00.170Z,12.4
2017-09-13T02:30:00.973Z,12.4
2017-09-13T02:31:02.168Z,12.4
2017-09-13T02:32:02.895Z,12.4
2017-09-13T02:33:03.622Z,12.4
2017-09-13T02:34:04.375Z,12.3
2017-09-13T02:35:05.172Z,12.3
2017-09-13T02:36:05.899Z,12.2
2017-09-13T02:37:06.975Z,12.2
2017-09-13T02:38:07.698Z,12.2
2017-09-13T02:39:08.421Z,12.1
2017-09-13T02:40:09.223Z,12.2
2017-09-13T02:41:09.941Z,12.1
2017-09-13T02:42:11.054Z,12.1
2017-09-13T02:43:11.787Z,12.4
2017-09-13T02:44:12.594Z,12.5
2017-09-13T02:45:13.369Z,12.5
2017-09-13T02:46:14.105Z,12.5
2017-09-13T02:47:15.101Z,12.5
2017-09-13T02:48:15.915Z,12.4
2017-09-13T02:49:16.666Z,12.5
2017-09-13T02:50:17.444Z,12.4
2017-09-13T02:51:18.173Z,12.4
2017-09-13T02:52:19.284Z,12.4
2017-09-13T02:53:20.022Z,12.7
2017-09-13T02:54:20.791Z,12.7
2017-09-13T02:55:21.512Z,12.6
2017-09-13T02:56:22.309Z,12.7
2017-09-13T02:57:23.045Z,12.8
2017-09-13T02:58:24.165Z,12.8
2017-09-13T02:59:44.159Z,13.0
2017-09-13T03:00:44.942Z,13.1
2017-09-13T03:01:45.662Z,12.9
2017-09-13T03:02:46.378Z,12.9
2017-09-13T03:03:47.475Z,12.8
2017-09-13T03:04:48.202Z,12.7
2017-09-13T03:05:48.990Z,12.8
2017-09-13T03:06:49.752Z,12.6
2017-09-13T03:07:50.545Z,12.6
2017-09-13T03:08:51.576Z,12.5
2017-09-13T03:09:52.333Z,12.4
2017-09-13T03:10:53.057Z,12.5
2017-09-13T03:11:53.823Z,12.3
2017-09-13T03:12:54.553Z,12.2
2017-09-13T03:13:55.287Z,12.2
2017-09-13T03:14:56.081Z,12.2
2017-09-13T03:15:56.861Z,12.1
2017-09-13T03:16:57.888Z,12.1
2017-09-13T03:17:58.624Z,12.0
2017-09-13T03:18:59.409Z,12.0
2017-09-13T03:20:00.141Z,11.9
2017-09-13T03:21:00.909Z,12.0
2017-09-13T03:22:01.970Z,11.9
2017-09-13T03:23:02.688Z,11.9
2017-09-13T03:24:03.413Z,11.9
2017-09-13T03:25:04.221Z,11.8
2017-09-13T03:26:05.027Z,11.8
2017-09-13T03:27:06.099Z,11.8
2017-09-13T03:28:06.836Z,11.8
2017-09-13T03:29:07.620Z,11.8
2017-09-13T03:30:08.350Z,11.8
2017-09-13T03:31:09.131Z,11.8
2017-09-13T03:32:10.060Z,11.8
2017-09-13T03:33:10.789Z,11.9
2017-09-13T03:34:11.530Z,11.9
2017-09-13T03:35:12.338Z,11.9
2017-09-13T03:36:13.130Z,11.9
2017-09-13T03:37:14.501Z,11.9
2017-09-13T03:38:15.294Z,11.9
2017-09-13T03:39:16.094Z,11.8
2017-09-13T03:40:16.866Z,11.8
2017-09-13T03:41:17.665Z,11.8
2017-09-13T03:42:18.761Z,11.8
2017-09-13T03:43:19.593Z,11.8
2017-09-13T03:44:20.349Z,11.8
2017-09-13T03:45:21.072Z,11.7
2017-09-13T03:46:21.814Z,11.8
2017-09-13T03:47:22.881Z,11.6
2017-09-13T03:48:23.680Z,11.6
2017-09-13T03:49:24.423Z,11.6
2017-09-13T03:50:25.230Z,11.5
2017-09-13T03:51:25.954Z,11.4
2017-09-13T03:52:26.780Z,11.5
2017-09-13T03:53:27.862Z,11.4
2017-09-13T03:54:28.624Z,11.4
2017-09-13T03:55:29.359Z,11.4
2017-09-13T03:56:30.081Z,11.4
2017-09-13T03:57:30.863Z,11.4
2017-09-13T03:58:31.955Z,11.4
2017-09-13T03:59:32.738Z,11.3
2017-09-13T04:00:33.505Z,11.3
2017-09-13T04:01:34.244Z,11.4
2017-09-13T04:02:35.017Z,11.3
2017-09-13T04:03:36.117Z,11.4
2017-09-13T04:04:36.856Z,11.4
2017-09-13T04:05:37.651Z,11.3
2017-09-13T04:06:38.374Z,11.3
2017-09-13T04:07:39.104Z,11.3
2017-09-13T04:08:40.233Z,11.4
2017-09-13T04:09:40.959Z,11.4
2017-09-13T04:10:41.686Z,11.3
2017-09-13T04:11:42.472Z,11.3
2017-09-13T04:12:43.204Z,11.3
2017-09-13T04:13:44.407Z,11.3
2017-09-13T04:14:45.144Z,11.3
2017-09-13T04:15:45.863Z,11.3
2017-09-13T04:16:46.591Z,11.3
2017-09-13T04:17:47.322Z,11.2
2017-09-13T04:18:48.304Z,11.4
2017-09-13T04:19:49.029Z,11.4
2017-09-13T04:20:49.767Z,11.3
2017-09-13T04:21:50.551Z,11.4
2017-09-13T04:22:51.333Z,11.3
2017-09-13T04:23:52.266Z,11.3
2017-09-13T04:24:53.075Z,11.3
2017-09-13T04:25:53.878Z,11.3
2017-09-13T04:26:54.655Z,11.4
2017-09-13T04:27:55.389Z,11.4
2017-09-13T04:28:56.504Z,11.4
2017-09-13T04:29:57.232Z,11.4
2017-09-13T04:30:57.972Z,11.3
2017-09-13T04:31:58.765Z,11.4
2017-09-13T04:32:59.498Z,11.4
2017-09-13T04:34:00.703Z,11.4
2017-09-13T04:35:01.433Z,11.4
2017-09-13T04:36:02.167Z,11.4
2017-09-13T04:37:02.884Z,11.5
2017-09-13T04:38:03.613Z,11.3
2017-09-13T04:39:04.684Z,11.4
2017-09-13T04:40:05.421Z,11.4
2017-09-13T04:41:06.215Z,11.4
2017-09-13T04:42:07.023Z,11.4
2017-09-13T04:43:07.751Z,11.4
2017-09-13T04:44:08.497Z,11.4
2017-09-13T04:45:09.279Z,11.5
2017-09-13T04:46:10.016Z,11.5
2017-09-13T04:47:10.811Z,11.5
2017-09-13T04:48:11.544Z,11.4
2017-09-13T04:49:12.703Z,11.5
2017-09-13T04:50:13.448Z,11.4
2017-09-13T04:51:14.241Z,11.4
2017-09-13T04:52:14.983Z,11.4
2017-09-13T04:53:15.713Z,11.5
2017-09-13T04:54:16.796Z,11.5
2017-09-13T04:55:17.532Z,11.5
2017-09-13T04:56:18.265Z,11.5
2017-09-13T04:57:18.994Z,11.4
2017-09-13T04:58:19.722Z,11.5
2017-09-13T04:59:20.764Z,11.5
2017-09-13T05:00:21.592Z,11.5
2017-09-13T05:01:22.324Z,11.6
2017-09-13T05:02:23.052Z,11.6
2017-09-13T05:03:23.793Z,11.6
2017-09-13T05:04:24.718Z,11.5
2017-09-13T05:05:25.452Z,11.6
2017-09-13T05:06:26.246Z,11.6
2017-09-13T05:07:27.034Z,11.7
2017-09-13T05:08:27.853Z,11.6
2017-09-13T05:09:28.782Z,11.6
2017-09-13T05:10:29.514Z,11.7
2017-09-13T05:11:30.261Z,11.6
2017-09-13T05:12:31.026Z,11.6
2017-09-13T05:13:31.761Z,11.6
2017-09-13T05:14:32.508Z,11.6
2017-09-13T05:15:33.632Z,11.7
2017-09-13T05:16:34.357Z,11.6
2017-09-13T05:17:35.105Z,11.7
2017-09-13T05:18:35.847Z,11.7
2017-09-13T05:19:36.563Z,11.7
2017-09-13T05:20:37.287Z,11.7
2017-09-13T05:21:38.009Z,11.7
2017-09-13T05:22:38.738Z,11.7
2017-09-13T05:23:39.468Z,11.8
2017-09-13T05:24:40.204Z,11.8
2017-09-13T05:25:41.373Z,11.7
2017-09-13T05:26:42.093Z,11.7
2017-09-13T05:27:42.826Z,11.7
2017-09-13T05:28:43.622Z,11.7
2017-09-13T05:29:44.348Z,11.7
2017-09-13T05:30:45.427Z,11.7
2017-09-13T05:31:46.212Z,11.8
2017-09-13T05:32:46.948Z,11.7
2017-09-13T05:33:47.682Z,11.7
2017-09-13T05:34:48.413Z,11.7
2017-09-13T05:35:49.493Z,11.7
2017-09-13T05:36:50.223Z,11.8
2017-09-13T05:37:50.960Z,11.8
2017-09-13T05:38:51.747Z,11.7
2017-09-13T05:39:52.474Z,11.8
2017-09-13T05:40:53.284Z,11.8
2017-09-13T05:41:54.023Z,11.8
2017-09-13T05:42:54.833Z,11.8
2017-09-13T05:43:55.924Z,11.9
2017-09-13T05:44:56.717Z,12.0
2017-09-13T05:45:57.441Z,12.0
2017-09-13T05:46:58.204Z,12.0
2017-09-13T05:47:58.932Z,12.0
2017-09-13T05:48:59.862Z,11.9
2017-09-13T05:50:00.593Z,11.9
2017-09-13T05:51:01.333Z,12.0
2017-09-13T05:52:02.059Z,12.1
2017-09-13T05:53:02.785Z,12.0
2017-09-13T05:54:03.883Z,12.1
2017-09-13T05:55:04.630Z,12.0
2017-09-13T05:56:05.354Z,12.1
2017-09-13T05:57:06.175Z,12.1
2017-09-13T05:58:06.973Z,12.1
2017-09-13T05:59:07.713Z,12.1
2017-09-13T06:00:08.507Z,12.1
2017-09-13T06:01:09.283Z,12.1
2017-09-13T06:02:10.377Z,12.1
2017-09-13T06:03:11.163Z,12.1
2017-09-13T06:04:11.896Z,12.1
2017-09-13T06:05:12.684Z,12.1
2017-09-13T06:06:13.424Z,12.1
2017-09-13T06:07:14.354Z,12.1
2017-09-13T06:08:15.163Z,12.2
2017-09-13T06:09:15.964Z,12.1
2017-09-13T06:10:16.699Z,12.2
2017-09-13T06:11:17.504Z,12.2
2017-09-13T06:12:18.564Z,12.2
2017-09-13T06:13:19.333Z,12.2
2017-09-13T06:14:20.042Z,12.2
2017-09-13T06:15:20.782Z,12.2
2017-09-13T06:16:21.505Z,12.2
2017-09-13T06:17:22.586Z,12.3
2017-09-13T06:18:23.414Z,12.3
2017-09-13T06:19:24.143Z,12.3
2017-09-13T06:20:24.880Z,12.3
2017-09-13T06:21:25.603Z,12.3
2017-09-13T06:22:26.540Z,12.3
2017-09-13T06:23:27.274Z,12.3
2017-09-13T06:24:28.070Z,12.4
2017-09-13T06:25:28.803Z,12.4
2017-09-13T06:26:29.570Z,12.3
2017-09-13T06:27:30.661Z,12.4
2017-09-13T06:28:31.403Z,12.4
2017-09-13T06:29:32.142Z,12.5
2017-09-13T06:30:32.873Z,12.5
2017-09-13T06:31:33.607Z,12.5
2017-09-13T06:32:34.694Z,12.5
2017-09-13T06:33:35.484Z,12.5
2017-09-13T06:34:36.203Z,12.6
2017-09-13T06:35:36.944Z,12.5
2017-09-13T06:36:37.732Z,12.5
2017-09-13T06:37:38.827Z,12.5
2017-09-13T06:38:39.592Z,12.6
2017-09-13T06:39:40.365Z,12.7
2017-09-13T06:40:41.095Z,12.6
2017-09-13T06:41:41.913Z,12.7
2017-09-13T06:42:42.913Z,12.7
2017-09-13T06:43:43.653Z,12.7
2017-09-13T06:44:44.381Z,12.7
2017-09-13T06:45:45.113Z,12.7
2017-09-13T06:46:45.856Z,12.7
2017-09-13T06:47:46.977Z,12.6
2017-09-13T06:48:47.713Z,12.8
2017-09-13T06:49:48.458Z,12.7
2017-09-13T06:50:49.235Z,12.8
2017-09-13T06:51:50.036Z,12.9
2017-09-13T06:52:51.065Z,12.9
2017-09-13T06:53:51.872Z,12.8
2017-09-13T06:54:52.602Z,12.9
2017-09-13T06:55:53.334Z,12.9
2017-09-13T06:56:54.133Z,12.9
2017-09-13T06:57:55.213Z,12.9
2017-09-13T06:58:55.943Z,12.9
2017-09-13T06:59:56.737Z,12.9
2017-09-13T07:00:57.500Z,12.9
2017-09-13T07:01:58.232Z,12.9
2017-09-13T07:02:59.513Z,12.9
2017-09-13T07:04:00.186Z,13.0
2017-09-13T07:05:00.983Z,12.9
2017-09-13T07:06:01.716Z,13.0
2017-09-13T07:07:02.455Z,13.0
2017-09-13T07:08:03.424Z,13.1
2017-09-13T07:09:04.222Z,13.0
2017-09-13T07:10:04.900Z,12.9
2017-09-13T07:11:05.687Z,13.0
2017-09-13T07:12:06.477Z,13.0
2017-09-13T07:13:07.573Z,13.0
2017-09-13T07:14:08.307Z,13.0
2017-09-13T07:15:09.075Z,13.0
2017-09-13T07:16:09.814Z,13.0
2017-09-13T07:17:10.548Z,13.0
2017-09-13T07:18:11.532Z,13.0
2017-09-13T07:19:12.271Z,13.0
2017-09-13T07:20:13.044Z,13.0
2017-09-13T07:21:13.851Z,13.1
2017-09-13T07:22:14.635Z,13.1
2017-09-13T07:23:15.704Z,13.1
2017-09-13T07:24:16.502Z,13.1
2017-09-13T07:25:17.240Z,13.2
2017-09-13T07:26:18.013Z,13.2
2017-09-13T07:27:18.743Z,13.2
2017-09-13T07:28:19.962Z,13.4
2017-09-13T07:29:20.706Z,13.4
2017-09-13T07:30:21.504Z,13.4
2017-09-13T07:31:22.246Z,13.4
2017-09-13T07:32:23.009Z,13.5
2017-09-13T07:33:24.029Z,13.5
2017-09-13T07:34:24.753Z,13.5
2017-09-13T07:35:25.489Z,13.6
2017-09-13T07:36:26.219Z,13.7
2017-09-13T07:37:27.015Z,13.6
2017-09-13T07:38:28.057Z,13.7
2017-09-13T07:39:28.796Z,13.6
2017-09-13T07:40:29.606Z,13.6
2017-09-13T07:41:30.402Z,13.7
2017-09-13T07:42:31.133Z,13.9
2017-09-13T07:43:32.228Z,13.9
2017-09-13T07:44:33.003Z,14.1
2017-09-13T07:45:33.812Z,14.0
2017-09-13T07:46:34.546Z,14.1
2017-09-13T07:47:35.364Z,14.1
2017-09-13T07:48:36.467Z,14.2
2017-09-13T07:49:37.265Z,14.2
2017-09-13T07:50:37.998Z,14.2
2017-09-13T07:51:38.802Z,14.2
2017-09-13T07:52:39.543Z,14.2
2017-09-13T07:53:40.524Z,14.3
2017-09-13T07:54:41.254Z,14.5
2017-09-13T07:55:42.098Z,14.5
2017-09-13T07:56:42.804Z,14.7
2017-09-13T07:57:43.544Z,14.7
2017-09-13T07:58:44.803Z,14.6
2017-09-13T07:59:45.540Z,14.7
2017-09-13T08:00:46.378Z,14.9
2017-09-13T08:01:47.114Z,15.1
2017-09-13T08:02:47.923Z,15.5
2017-09-13T08:03:49.008Z,15.7
2017-09-13T08:04:49.786Z,15.6
2017-09-13T08:05:50.533Z,15.8
2017-09-13T08:06:51.302Z,15.7
2017-09-13T08:07:52.042Z,15.6
2017-09-13T08:08:53.075Z,15.9
2017-09-13T08:09:53.812Z,15.8
2017-09-13T08:10:54.553Z,16.1
2017-09-13T08:11:55.373Z,16.4
2017-09-13T08:12:56.122Z,16.2
2017-09-13T08:13:56.853Z,16.2
2017-09-13T08:14:57.983Z,16.1
2017-09-13T08:15:58.723Z,16.4
2017-09-13T08:16:59.454Z,16.4
2017-09-13T08:18:00.272Z,16.3
2017-09-13T08:19:01.022Z,16.5
2017-09-13T08:20:01.750Z,16.7
2017-09-13T08:21:02.788Z,16.8
2017-09-13T08:22:03.613Z,17.2
2017-09-13T08:23:04.352Z,17.1
2017-09-13T08:24:05.082Z,16.8
2017-09-13T08:25:05.810Z,16.7
2017-09-13T08:26:06.855Z,16.6
2017-09-13T08:27:07.656Z,16.5
2017-09-13T08:28:08.399Z,16.4
2017-09-13T08:29:09.255Z,16.3
2017-09-13T08:30:09.999Z,16.1
2017-09-13T08:31:11.107Z,16.0
2017-09-13T08:32:11.917Z,16.0
2017-09-13T08:33:12.743Z,16.0
2017-09-13T08:34:13.483Z,16.0
2017-09-13T08:35:14.274Z,15.9
2017-09-13T08:36:15.409Z,15.9
2017-09-13T08:37:16.214Z,15.8
2017-09-13T08:38:16.942Z,15.8
2017-09-13T08:39:17.683Z,15.6
2017-09-13T08:40:18.434Z,15.7
2017-09-13T08:41:19.174Z,15.7
2017-09-13T08:42:19.912Z,15.8
2017-09-13T08:43:20.649Z,15.8
2017-09-13T08:44:21.389Z,15.7
2017-09-13T08:45:22.172Z,15.8
2017-09-13T08:46:22.903Z,15.8
2017-09-13T08:47:23.650Z,15.8
2017-09-13T08:48:24.643Z,15.8
2017-09-13T08:49:25.377Z,15.8
2017-09-13T08:50:26.110Z,15.8
2017-09-13T08:51:26.882Z,15.8
2017-09-13T08:52:27.625Z,15.9
2017-09-13T08:53:28.783Z,15.8
2017-09-13T08:54:29.529Z,16.0
2017-09-13T08:55:30.332Z,16.0
2017-09-13T08:56:31.133Z,15.9
2017-09-13T08:57:31.867Z,15.9
2017-09-13T08:58:32.883Z,15.7
2017-09-13T08:59:33.637Z,15.8
2017-09-13T09:00:34.425Z,15.7
2017-09-13T09:01:35.177Z,15.7
2017-09-13T09:02:35.953Z,15.6
2017-09-13T09:03:37.046Z,15.5
2017-09-13T09:04:37.873Z,15.5
2017-09-13T09:05:38.614Z,15.4
2017-09-13T09:06:39.418Z,15.4
2017-09-13T09:07:40.260Z,15.4
2017-09-13T09:08:41.265Z,15.5
2017-09-13T09:09:42.005Z,15.6
2017-09-13T09:10:42.834Z,15.6
2017-09-13T09:11:43.582Z,15.6
2017-09-13T09:12:44.378Z,15.7
2017-09-13T09:13:45.823Z,15.8
2017-09-13T09:14:46.555Z,15.8
2017-09-13T09:15:47.294Z,15.7
2017-09-13T09:16:48.073Z,15.7
2017-09-13T09:17:48.815Z,15.7
2017-09-13T09:18:49.599Z,15.5
2017-09-13T09:19:50.343Z,15.5
2017-09-13T09:20:51.082Z,15.4
2017-09-13T09:21:52.163Z,15.4
2017-09-13T09:22:52.906Z,15.3
2017-09-13T09:23:53.648Z,15.2
2017-09-13T09:24:54.437Z,15.3
2017-09-13T09:25:55.193Z,15.3
2017-09-13T09:26:56.124Z,15.3
2017-09-13T09:27:56.863Z,15.4
2017-09-13T09:28:57.674Z,15.5
2017-09-13T09:29:58.482Z,15.7
2017-09-13T09:30:59.238Z,15.9
2017-09-13T09:32:00.437Z,15.7
2017-09-13T09:33:01.212Z,15.9
2017-09-13T09:34:01.937Z,16.0
2017-09-13T09:35:02.668Z,16.0
2017-09-13T09:36:03.405Z,16.0
2017-09-13T09:37:04.603Z,15.9
2017-09-13T09:38:05.332Z,15.8
2017-09-13T09:39:06.061Z,15.9
2017-09-13T09:40:06.800Z,15.7
2017-09-13T09:41:07.581Z,15.9
2017-09-13T09:42:08.313Z,15.9
2017-09-13T09:43:09.056Z,16.0
2017-09-13T09:44:10.283Z,15.9
2017-09-13T09:45:11.027Z,15.9
2017-09-13T09:46:11.773Z,15.9
2017-09-13T09:47:12.516Z,16.0
2017-09-13T09:48:13.305Z,16.1
2017-09-13T09:49:14.418Z,16.1
2017-09-13T09:50:15.213Z,16.0
2017-09-13T09:51:15.959Z,16.0
2017-09-13T09:52:16.734Z,16.0
2017-09-13T09:53:17.564Z,16.2
2017-09-13T09:54:18.595Z,16.0
2017-09-13T09:55:19.409Z,16.0
2017-09-13T09:56:20.143Z,16.0
2017-09-13T09:57:20.856Z,16.1
2017-09-13T09:58:21.587Z,16.0
2017-09-13T09:59:22.806Z,16.0
2017-09-13T10:00:23.537Z,15.9
2017-09-13T10:01:24.273Z,16.0
2017-09-13T10:02:25.016Z,16.0
2017-09-13T10:03:25.841Z,16.0
2017-09-13T10:04:26.905Z,15.9
2017-09-13T10:05:27.709Z,15.7
2017-09-13T10:06:28.444Z,15.5
2017-09-13T10:07:29.193Z,15.1
2017-09-13T10:08:29.936Z,14.7
2017-09-13T10:09:31.146Z,14.3
2017-09-13T10:10:31.880Z,14.3
2017-09-13T10:11:32.623Z,14.1
2017-09-13T10:12:33.419Z,14.2
2017-09-13T10:13:34.154Z,14.1
2017-09-13T10:14:35.195Z,14.0
2017-09-13T10:15:35.913Z,13.9
2017-09-13T10:16:36.644Z,13.9
2017-09-13T10:17:37.381Z,13.9
2017-09-13T10:18:38.125Z,13.9
2017-09-13T10:19:39.124Z,13.8
2017-09-13T10:20:39.863Z,13.8
2017-09-13T10:21:40.603Z,13.6
2017-09-13T10:22:41.357Z,13.6
2017-09-13T10:23:42.168Z,13.5
2017-09-13T10:24:43.009Z,13.6
2017-09-13T10:25:43.696Z,13.6
2017-09-13T10:26:44.436Z,13.6
2017-09-13T10:27:45.247Z,13.6
2017-09-13T10:28:46.343Z,13.7
2017-09-13T10:29:47.079Z,14.1
2017-09-13T10:30:47.833Z,14.6
2017-09-13T10:31:48.564Z,15.0
2017-09-13T10:32:49.299Z,15.1
2017-09-13T10:33:50.332Z,15.0
2017-09-13T10:34:51.066Z,15.2
2017-09-13T10:35:51.808Z,15.3
2017-09-13T10:36:52.547Z,15.3
2017-09-13T10:37:53.350Z,15.4
2017-09-13T10:38:54.488Z,15.8
2017-09-13T10:39:55.221Z,15.8
2017-09-13T10:40:56.042Z,15.7
2017-09-13T10:41:56.782Z,15.4
2017-09-13T10:42:57.511Z,15.3
2017-09-13T10:43:58.595Z,15.2
2017-09-13T10:44:59.332Z,15.2
2017-09-13T10:46:00.072Z,15.1
2017-09-13T10:47:00.816Z,15.1
2017-09-13T10:48:01.564Z,15.2
2017-09-13T10:49:02.298Z,15.1
2017-09-13T10:50:03.029Z,15.3
2017-09-13T10:51:03.774Z,15.3
2017-09-13T10:52:04.814Z,15.8
2017-09-13T10:53:05.639Z,16.3
2017-09-13T10:54:06.453Z,16.5
2017-09-13T10:55:07.254Z,16.6
2017-09-13T10:56:08.001Z,16.9
2017-09-13T10:57:09.146Z,17.1
2017-09-13T10:58:09.965Z,17.2
2017-09-13T10:59:10.747Z,17.3
2017-09-13T11:00:11.487Z,17.5
2017-09-13T11:01:12.234Z,17.7
2017-09-13T11:02:13.274Z,17.9
2017-09-13T11:03:14.020Z,17.9
2017-09-13T11:04:14.781Z,17.9
2017-09-13T11:05:15.606Z,18.2
2017-09-13T11:06:16.413Z,18.4
2017-09-13T11:07:17.508Z,18.2
2017-09-13T11:08:18.323Z,18.4
2017-09-13T11:09:19.062Z,18.7
2017-09-13T11:10:19.797Z,18.8
2017-09-13T11:11:20.542Z,19.0
2017-09-13T11:12:21.681Z,19.1
2017-09-13T11:13:22.496Z,19.1
2017-09-13T11:14:23.288Z,19.4
2017-09-13T11:15:24.092Z,19.4
2017-09-13T11:16:24.821Z,19.5
2017-09-13T11:17:25.825Z,19.6
2017-09-13T11:18:26.579Z,19.3
2017-09-13T11:19:27.374Z,18.7
2017-09-13T11:20:28.114Z,18.5
2017-09-13T11:21:28.854Z,18.2
2017-09-13T11:22:29.800Z,17.9
2017-09-13T11:23:30.536Z,17.4
2017-09-13T11:24:31.277Z,17.3
2017-09-13T11:25:32.006Z,17.3
2017-09-13T11:26:32.824Z,17.4
2017-09-13T11:27:33.814Z,17.5
2017-09-13T11:28:34.623Z,17.3
2017-09-13T11:29:35.372Z,17.1
2017-09-13T11:30:36.103Z,17.1
2017-09-13T11:31:36.842Z,17.0
2017-09-13T11:32:37.841Z,16.9
2017-09-13T11:33:38.649Z,16.8
2017-09-13T11:34:39.403Z,16.8
2017-09-13T11:35:40.147Z,16.7
2017-09-13T11:36:40.921Z,16.7
2017-09-13T11:37:41.663Z,16.7
2017-09-13T11:38:42.654Z,16.7
2017-09-13T11:39:43.463Z,16.7
2017-09-13T11:40:44.204Z,16.6
2017-09-13T11:41:45.024Z,16.6
2017-09-13T11:42:45.760Z,16.5
2017-09-13T11:43:46.851Z,16.5
2017-09-13T11:44:47.656Z,16.5
2017-09-13T11:45:48.479Z,16.7
2017-09-13T11:46:49.284Z,16.7
2017-09-13T11:47:50.029Z,16.7
2017-09-13T11:48:50.769Z,16.7
2017-09-13T11:49:51.503Z,16.7
2017-09-13T11:50:52.638Z,16.7
2017-09-13T11:51:53.443Z,16.8
2017-09-13T11:52:54.243Z,16.7
2017-09-13T11:53:54.973Z,16.7
2017-09-13T11:54:55.704Z,16.8
2017-09-13T11:55:56.653Z,17.2
2017-09-13T11:56:57.453Z,17.3
2017-09-13T11:57:58.189Z,17.3
2017-09-13T11:58:58.924Z,17.8
2017-09-13T11:59:59.656Z,17.8
2017-09-13T12:01:00.797Z,18.3
2017-09-13T12:02:01.527Z,18.5
2017-09-13T12:03:02.273Z,18.9
2017-09-13T12:04:03.007Z,18.8
2017-09-13T12:05:03.795Z,18.4
2017-09-13T12:06:04.520Z,18.2
2017-09-13T12:07:05.261Z,17.9
2017-09-13T12:08:06.289Z,17.8
2017-09-13T12:09:07.019Z,17.8
2017-09-13T12:10:07.766Z,17.7
2017-09-13T12:11:08.498Z,17.4
2017-09-13T12:12:09.254Z,17.4
2017-09-13T12:13:10.403Z,17.3
2017-09-13T12:14:11.139Z,17.6
2017-09-13T12:15:11.893Z,18.3
2017-09-13T12:16:12.678Z,18.6
2017-09-13T12:17:13.414Z,18.5
2017-09-13T12:18:14.515Z,18.2
2017-09-13T12:19:15.324Z,17.8
2017-09-13T12:20:16.051Z,17.6
2017-09-13T12:21:16.786Z,17.4
2017-09-13T12:22:17.595Z,17.3
2017-09-13T12:23:18.624Z,17.3
2017-09-13T12:24:19.444Z,17.6
2017-09-13T12:25:20.245Z,17.4
2017-09-13T12:26:20.997Z,17.3
2017-09-13T12:27:21.703Z,17.3
2017-09-13T12:28:22.448Z,17.3
2017-09-13T12:29:23.185Z,17.7
2017-09-13T12:30:23.915Z,17.7
2017-09-13T12:31:24.664Z,17.9
2017-09-13T12:32:25.607Z,18.1
2017-09-13T12:33:26.348Z,18.7
2017-09-13T12:34:27.149Z,19.3
2017-09-13T12:35:27.891Z,19.8
2017-09-13T12:36:28.713Z,20.2
2017-09-13T12:37:29.706Z,20.5
2017-09-13T12:38:30.450Z,20.5
2017-09-13T12:39:31.200Z,20.5
2017-09-13T12:40:31.947Z,20.8
2017-09-13T12:41:32.763Z,21.0
2017-09-13T12:42:33.757Z,21.2
2017-09-13T12:43:34.563Z,20.8
2017-09-13T12:44:35.303Z,20.6
2017-09-13T12:45:36.053Z,20.7
2017-09-13T12:46:36.785Z,20.6
2017-09-13T12:47:37.893Z,20.4
2017-09-13T12:48:38.635Z,20.4
2017-09-13T12:49:39.465Z,20.3
2017-09-13T12:50:40.249Z,20.5
2017-09-13T12:51:40.993Z,20.6
2017-09-13T12:52:41.742Z,20.8
2017-09-13T12:53:42.925Z,20.8
2017-09-13T12:54:43.749Z,20.8
2017-09-13T12:55:44.547Z,20.7
2017-09-13T12:56:45.347Z,20.4
2017-09-13T12:57:46.099Z,20.3
2017-09-13T12:58:47.540Z,20.1
2017-09-13T12:59:48.278Z,19.7
2017-09-13T13:00:49.087Z,19.6
2017-09-13T13:01:49.822Z,19.8
2017-09-13T13:02:50.583Z,19.3
2017-09-13T13:03:51.320Z,19.2
2017-09-13T13:04:52.364Z,19.2
2017-09-13T13:05:53.097Z,19.5
2017-09-13T13:06:53.893Z,19.3
2017-09-13T13:07:54.659Z,19.2
2017-09-13T13:08:55.424Z,18.8
2017-09-13T13:09:56.652Z,18.7
2017-09-13T13:10:57.393Z,18.7
2017-09-13T13:11:58.146Z,18.7
2017-09-13T13:12:58.917Z,18.6
2017-09-13T13:13:59.686Z,18.5
2017-09-13T13:15:00.784Z,18.7
2017-09-13T13:16:01.523Z,18.8
2017-09-13T13:17:02.262Z,18.7
2017-09-13T13:18:03.002Z,18.6
2017-09-13T13:19:03.741Z,18.5
2017-09-13T13:20:04.545Z,18.5
2017-09-13T13:21:05.804Z,18.5
2017-09-13T13:22:06.553Z,18.3
2017-09-13T13:23:07.311Z,18.1
2017-09-13T13:24:08.042Z,18.4
2017-09-13T13:25:08.780Z,18.5
2017-09-13T13:26:09.879Z,18.7
2017-09-13T13:27:10.693Z,18.9
2017-09-13T13:28:11.417Z,19.1
2017-09-13T13:29:12.225Z,19.1
2017-09-13T13:30:13.033Z,19.2